Архив погоды в Архаре

Метеограмма Архара
Среда, 23 Августа
Время местн. Темп Ветер Видим Явления Облачность нижн/средн/верх Атм. давл. Влжн Точка росы ВНГО R Сост. почвы Tg s
Напр Скр Прв ур.ст ур.м изм
15:00 +23.2° З 2 - 10 км - облачно 742 753 -0.7 54% +13.3° 1.5 км - - - -
12:00 +22.4° Ю-З 3 - 4 км дымка переменная облачность 742 754 -1 58% +13.7° более 2.5 км - - - -
09:00 +18.1° Ю 1 - 4 км дымка ясно 743 755 +0.3 72% +13° более 2.5 км 0 Влажная (без луж) - -
06:00 +12.9° В,Ю-В 1 - 4 км дымка переменная облачность 743 755 +0.5 89% +11.1° более 2.5 км - - - -
03:00 +12.8° Ю-В 1 - 10 км - переменная облачность 743 755 +0.2 92% +11.5° более 2.5 км - - - -
00:00 +16.4° В,Ю-В 2 - 10 км - облачно 742 754 +0.1 79% +12.7° - - - - -
Вторник, 22 Августа
Время местн. Темп Ветер Видим Явления Облачность нижн/средн/верх Атм. давл. Влжн Точка росы ВНГО R Сост. почвы Tg s
Напр Скр Прв ур.ст ур.м изм
21:00 +15.4° штиль 0 - 10 км - ясно 742 754 +0.8 85% +12.9° более 2.5 км 0 - - -
18:00 +23.8° З 2 - 10 км - переменная облачность 741 753 +0.5 55% +14.1° более 2.5 км - - - -
15:00 +26.4° З 2 - 10 км - переменная облачность 741 753 -0.5 36% +10.1° 1.5 км - - - -
12:00 +24.9° З,Ю-З 3 - 20 км - ясно 742 753 -0.4 52% +14.5° более 2.5 км - - - -
09:00 +21.1° Ю,Ю-З 2 - 20 км небо без изменений {туман} ясно 742 754 +0.8 75% +16.5° более 2.5 км 17 Влажная (без луж) +17° -
06:00 +16.3° Ю-В 2 - 0.5 км туман усиливается, небо видно ясно 741 753 +0.5 94% +15.4° более 2.5 км - - - -
03:00 +15.3° Ю 1 10 более 50 км гроза {ливневые осадки} ясно 741 753 -1.7 94% +14.3° более 2.5 км - - - -
00:00 +16.8° С-З 2 11 4 км слабый ливневый дождь облачно 742 754 +2.3 93% +15.7° 1 км - - - -
Понедельник, 21 Августа
Время местн. Темп Ветер Видим Явления Облачность нижн/средн/верх Атм. давл. Влжн Точка росы ВНГО R Сост. почвы Tg s
Напр Скр Прв ур.ст ур.м изм
21:00 +23.1° Ю-В 2 - 50 км - облачно 740 752 +0.4 72% +17.7° - 0 - - -
18:00 +27.4° Ю,Ю-В 3 11 более 50 км - облачно 740 751 -0.8 57% +18° более 2.5 км - - - -
15:00 +30.1° Ю-В 3 11 более 50 км - переменная облачность 740 752 -2 50% +18.5° более 2.5 км - - - -
12:00 +28.9° Ю,Ю-В 3 - 50 км - переменная облачность 742 754 -1.2 52% +18.2° более 2.5 км - - - -
09:00 +25.1° Ю-В 2 - более 50 км - переменная облачность 744 755 -0.6 68% +18.8° более 2.5 км 0 Сухая (без трещин) +19° -
06:00 +20.6° В,Ю-В 1 - более 50 км - ясно 744 756 -0.1 76% +16.3° более 2.5 км - - - -
03:00 +20.9° В,Ю-В 2 - 50 км - переменная облачность 744 756 -0.4 78% +17° более 2.5 км - - - -
00:00 +22.7° В,Ю-В 2 - более 50 км - облачно 745 756 -0.3 75% +18° более 2.5 км - - - -
Воскресенье, 20 Августа
Время местн. Темп Ветер Видим Явления Облачность нижн/средн/верх Атм. давл. Влжн Точка росы ВНГО R Сост. почвы Tg s
Напр Скр Прв ур.ст ур.м изм
21:00 +19.5° штиль 0 - 50 км - облачно 745 757 -0.2 90% +17.8° - 0 - - -
18:00 +28.1° В,Ю-В 1 - 50 км - переменная облачность 745 757 -0.5 52% +17.4° - - - - -
15:00 +29.5° Ю 1 - 20 км - облачно 746 757 -1.1 50% +17.9° 1.5 км - - - -
12:00 +26.7° Ю 1 - 20 км - облачно 747 758 -0.5 61% +18.5° 1.5 км - - - -